Time;durP1;ratioP1;P1;durP2;ratioP2;P2;SDS_P1;SDS_P2;PMS_P1;PMS_P2;Temp;Humidity;BMP_temperature;BMP_pressure;BME280_temperature;BME280_humidity;BME280_pressure;Samples;Min_cycle;Max_cycle;Signal;HPM_P1;HPM_P2
2023/08/26 00:00:58;;;;;;;0.00;0.00;;;;;;;10.82;100.00;99689.72;5021112;28;20104;-75
2023/08/26 00:03:24;;;;;;;0.00;0.00;;;;;;;10.68;100.00;99652.41;5023497;28;20039;-77
2023/08/26 00:05:50;;;;;;;0.00;0.00;;;;;;;10.80;100.00;99674.72;5008111;28;20044;-76
2023/08/26 00:08:15;;;;;;;0.00;0.00;;;;;;;10.84;100.00;99681.25;4996350;28;20431;-75
2023/08/26 00:10:41;;;;;;;0.00;0.00;;;;;;;10.87;100.00;99686.13;5006793;28;20029;-75
2023/08/26 00:13:08;;;;;;;0.00;0.00;;;;;;;10.86;100.00;99683.69;4984691;28;20836;-74
2023/08/26 00:15:34;;;;;;;0.00;0.00;;;;;;;10.80;100.00;99680.19;5025212;28;20095;-74
2023/08/26 00:18:00;;;;;;;0.00;0.00;;;;;;;10.77;100.00;99669.81;5001452;28;20479;-75
2023/08/26 00:20:26;;;;;;;0.00;0.00;;;;;;;10.79;100.00;99673.06;4971689;28;20567;-76
2023/08/26 00:22:52;;;;;;;0.00;0.00;;;;;;;10.78;100.00;99665.97;5000977;28;20404;-75
2023/08/26 00:25:27;;;;;;;0.00;0.00;;;;;;;10.87;100.00;99667.00;4971307;28;20033;-77
2023/08/26 00:27:52;;;;;;;0.00;0.00;;;;;;;11.03;100.00;99678.63;5009933;28;20109;-75
2023/08/26 00:30:18;;;;;;;0.00;0.00;;;;;;;11.03;100.00;99666.88;4997121;28;20839;-75
2023/08/26 00:32:43;;;;;;;0.00;0.00;;;;;;;11.04;100.00;99663.00;4987176;28;20375;-76
2023/08/26 00:35:09;;;;;;;0.00;0.00;;;;;;;11.21;100.00;99674.34;4991985;28;20037;-76
2023/08/26 00:37:35;;;;;;;0.00;0.00;;;;;;;11.03;100.00;99634.84;5017518;28;20086;-76
2023/08/26 00:40:00;;;;;;;0.00;0.00;;;;;;;11.28;100.00;99674.81;5017091;28;20464;-77
2023/08/26 00:42:26;;;;;;;0.00;0.00;;;;;;;11.28;100.00;99668.53;4984269;28;20038;-76
2023/08/26 00:44:56;;;;;;;0.00;0.00;;;;;;;11.19;100.00;99643.72;5019898;28;20083;-75
2023/08/26 00:47:22;;;;;;;0.00;0.00;;;;;;;11.28;100.00;99663.88;5008482;28;20071;-76
2023/08/26 00:49:47;;;;;;;0.00;0.00;;;;;;;11.16;100.00;99655.25;5019410;28;20033;-76
2023/08/26 00:52:13;;;;;;;0.00;0.00;;;;;;;11.02;100.00;99643.34;4990467;28;20429;-78
2023/08/26 00:54:38;;;;;;;0.00;0.00;;;;;;;10.94;100.00;99648.34;4992701;28;20059;-76
2023/08/26 00:57:11;;;;;;;0.00;0.00;;;;;;;10.88;100.00;99643.19;4990631;28;20026;-77
2023/08/26 00:59:37;;;;;;;0.00;0.00;;;;;;;10.76;100.00;99636.19;4986742;28;20042;-76
2023/08/26 01:02:02;;;;;;;0.00;0.00;;;;;;;10.64;100.00;99622.06;4972553;28;20029;-76
2023/08/26 01:04:28;;;;;;;0.00;0.00;;;;;;;10.63;100.00;99625.88;5001095;28;20115;-76
2023/08/26 01:06:54;;;;;;;0.00;0.00;;;;;;;10.60;100.00;99626.47;4999954;28;20029;-76
2023/08/26 01:09:24;;;;;;;0.00;0.00;;;;;;;10.59;100.00;99631.13;5011504;28;20068;-75
2023/08/26 01:12:09;;;;;;;0.00;0.00;;;;;;;10.54;100.00;99625.72;4994607;28;20040;-76
2023/08/26 01:14:42;;;;;;;0.00;0.00;;;;;;;10.47;100.00;99617.00;5015688;28;20073;-76
2023/08/26 01:17:11;;;;;;;0.00;0.00;;;;;;;10.51;100.00;99629.00;5008422;28;20026;-76
2023/08/26 01:19:38;;;;;;;0.00;0.00;;;;;;;10.57;100.00;99644.28;5009436;28;20036;-75
2023/08/26 01:22:08;;;;;;;0.00;0.00;;;;;;;10.60;100.00;99638.22;4986100;28;20033;-77
2023/08/26 01:24:35;;;;;;;0.00;0.00;;;;;;;10.58;100.00;99626.75;5004416;28;20029;-74
2023/08/26 01:27:07;;;;;;;0.00;0.00;;;;;;;10.55;100.00;99634.72;4983209;28;20487;-76
2023/08/26 01:29:32;;;;;;;0.00;0.00;;;;;;;10.52;100.00;99625.16;4996453;28;20064;-75
2023/08/26 01:32:26;;;;;;;0.00;0.00;;;;;;;10.60;100.00;99643.69;5001549;28;20054;-76
2023/08/26 01:34:59;;;;;;;0.00;0.00;;;;;;;10.63;100.00;99648.59;5010013;28;20072;-75
2023/08/26 01:37:29;;;;;;;0.00;0.00;;;;;;;10.59;100.00;99636.59;4988096;28;20041;-76
2023/08/26 01:39:58;;;;;;;0.00;0.00;;;;;;;10.59;100.00;99646.72;5015149;28;20021;-76
2023/08/26 01:42:28;;;;;;;0.00;0.00;;;;;;;10.65;100.00;99642.84;5007413;28;20030;-76
2023/08/26 01:44:59;;;;;;;0.00;0.00;;;;;;;10.63;100.00;99645.84;5008580;28;20032;-76
2023/08/26 01:47:25;;;;;;;0.00;0.00;;;;;;;10.67;100.00;99653.50;5018076;28;20487;-76
2023/08/26 01:49:50;;;;;;;0.00;0.00;;;;;;;10.66;100.00;99655.41;4976552;28;20021;-76
2023/08/26 01:52:16;;;;;;;0.08;0.08;;;;;;;10.62;100.00;99652.41;4965032;28;20996;-77
2023/08/26 01:54:42;;;;;;;0.00;0.00;;;;;;;10.65;100.00;99646.38;4975779;28;20426;-76
2023/08/26 01:57:07;;;;;;;0.00;0.00;;;;;;;10.74;100.00;99651.25;5018342;28;20077;-78
2023/08/26 01:59:33;;;;;;;0.00;0.00;;;;;;;10.79;100.00;99634.78;4985138;28;21101;-77
2023/08/26 02:01:58;;;;;;;0.00;0.00;;;;;;;10.96;100.00;99637.91;5008218;28;20047;-76
2023/08/26 02:04:24;;;;;;;0.00;0.00;;;;;;;11.16;100.00;99655.25;4993384;28;20056;-76
2023/08/26 02:06:49;;;;;;;0.00;0.00;;;;;;;11.24;100.00;99648.31;4997883;28;20148;-74
2023/08/26 02:09:15;;;;;;;0.00;0.00;;;;;;;11.30;100.00;99641.69;4986735;28;20036;-74
2023/08/26 02:11:40;;;;;;;0.00;0.00;;;;;;;11.39;100.00;99650.91;4980437;28;20036;-75
2023/08/26 02:14:06;;;;;;;0.00;0.00;;;;;;;11.31;100.00;99644.13;5017240;28;20053;-75
2023/08/26 02:16:31;;;;;;;0.00;0.00;;;;;;;11.25;100.00;99648.03;5001893;28;20053;-75
2023/08/26 02:18:57;;;;;;;0.00;0.00;;;;;;;10.99;100.00;99623.69;5000753;28;20112;-74
2023/08/26 02:21:22;;;;;;;0.00;0.00;;;;;;;11.03;100.00;99626.63;4985968;28;20108;-76
2023/08/26 02:23:48;;;;;;;0.00;0.00;;;;;;;10.92;100.00;99612.25;4986002;28;20029;-75
2023/08/26 02:26:13;;;;;;;0.00;0.00;;;;;;;10.93;100.00;99630.28;5021948;28;20376;-76
2023/08/26 02:28:39;;;;;;;0.00;0.00;;;;;;;10.79;100.00;99623.84;5001304;28;20084;-76
2023/08/26 02:31:07;;;;;;;0.00;0.00;;;;;;;10.80;100.00;99630.94;5012877;28;20033;-76
2023/08/26 02:33:33;;;;;;;0.00;0.00;;;;;;;10.78;100.00;99633.16;4970430;28;20048;-75
2023/08/26 02:35:58;;;;;;;0.00;0.00;;;;;;;10.77;100.00;99651.47;4999887;28;20034;-75
2023/08/26 02:38:31;;;;;;;0.00;0.00;;;;;;;10.71;100.00;99638.16;5011032;28;20018;-75
2023/08/26 02:41:14;;;;;;;0.00;0.00;;;;;;;10.72;100.00;99643.31;5006192;28;20118;-75
2023/08/26 02:43:39;;;;;;;0.00;0.00;;;;;;;10.89;100.00;99645.63;5011221;28;20026;-74
2023/08/26 02:46:05;;;;;;;0.00;0.00;;;;;;;11.07;100.00;99646.00;5014850;28;20040;-75
2023/08/26 02:48:30;;;;;;;0.00;0.00;;;;;;;11.04;100.00;99630.19;4988774;28;20033;-74
2023/08/26 02:50:59;;;;;;;0.00;0.00;;;;;;;11.05;100.00;99621.69;5010022;28;20033;-75
2023/08/26 02:53:26;;;;;;;0.00;0.00;;;;;;;11.13;100.00;99631.19;5022085;28;20039;-76
2023/08/26 02:55:52;;;;;;;0.00;0.00;;;;;;;11.25;100.00;99642.56;5002207;28;20022;-76
2023/08/26 02:58:18;;;;;;;0.00;0.00;;;;;;;11.33;100.00;99654.78;5003746;28;20092;-76
2023/08/26 03:00:44;;;;;;;0.00;0.00;;;;;;;11.27;100.00;99626.69;5000082;28;20021;-76
2023/08/26 03:03:13;;;;;;;0.00;0.00;;;;;;;11.41;100.00;99634.19;4986038;28;20032;-76
2023/08/26 03:05:38;;;;;;;0.00;0.00;;;;;;;11.56;100.00;99644.97;4999891;28;20022;-76
2023/08/26 03:08:04;;;;;;;0.00;0.00;;;;;;;11.59;100.00;99636.16;5004166;28;20037;-77
2023/08/26 03:10:31;;;;;;;0.00;0.00;;;;;;;11.65;100.00;99635.00;5004528;28;20093;-76
2023/08/26 03:12:56;;;;;;;0.00;0.00;;;;;;;11.68;100.00;99634.41;4984542;28;20057;-76
2023/08/26 03:15:28;;;;;;;0.00;0.00;;;;;;;11.59;100.00;99619.72;4999653;28;20555;-77
2023/08/26 03:17:54;;;;;;;0.00;0.00;;;;;;;11.68;100.00;99639.06;4999963;28;20029;-77
2023/08/26 03:20:19;;;;;;;0.00;0.00;;;;;;;11.69;100.00;99630.56;4993004;28;20030;-78
2023/08/26 03:22:45;;;;;;;0.00;0.00;;;;;;;11.60;100.00;99615.88;5012844;28;20507;-75
2023/08/26 03:25:13;;;;;;;0.00;0.00;;;;;;;11.62;100.00;99613.69;5015333;28;20103;-77
2023/08/26 03:27:38;;;;;;;0.00;0.00;;;;;;;11.72;100.00;99623.69;4989699;28;20043;-76
2023/08/26 03:30:05;;;;;;;0.00;0.00;;;;;;;11.57;100.00;99588.28;5008230;28;20655;-77
2023/08/26 03:32:30;;;;;;;0.00;0.00;;;;;;;11.61;100.00;99595.63;5000009;28;20037;-76
2023/08/26 03:34:56;;;;;;;0.00;0.00;;;;;;;11.78;100.00;99618.97;4986473;28;20404;-77
2023/08/26 03:37:21;;;;;;;0.00;0.00;;;;;;;11.79;100.00;99617.84;4987043;28;20052;-76
2023/08/26 03:39:47;;;;;;;0.00;0.00;;;;;;;11.80;100.00;99611.28;4997391;28;20056;-76
2023/08/26 03:42:14;;;;;;;0.00;0.00;;;;;;;11.72;100.00;99595.50;4998177;28;20030;-75
2023/08/26 03:44:40;;;;;;;0.00;0.00;;;;;;;11.72;100.00;99600.97;4994630;28;20036;-77
2023/08/26 03:47:05;;;;;;;0.00;0.00;;;;;;;11.68;100.00;99600.72;5011116;28;20021;-75
2023/08/26 03:49:33;;;;;;;0.00;0.00;;;;;;;11.64;100.00;99599.69;4982660;28;20112;-76
2023/08/26 03:52:02;;;;;;;0.00;0.00;;;;;;;11.60;100.00;99604.94;5007708;28;20018;-76
2023/08/26 03:54:28;;;;;;;0.00;0.00;;;;;;;11.63;100.00;99601.59;4998297;28;20588;-76
2023/08/26 03:56:53;;;;;;;0.00;0.00;;;;;;;11.56;100.00;99590.19;4983278;28;20915;-75
2023/08/26 03:59:21;;;;;;;0.00;0.00;;;;;;;11.53;100.00;99588.03;5017049;28;20029;-77
2023/08/26 04:01:46;;;;;;;0.00;0.00;;;;;;;11.55;100.00;99585.84;5010991;28;20026;-76
2023/08/26 04:04:12;;;;;;;0.00;0.00;;;;;;;11.58;100.00;99579.78;4968774;28;20034;-77
2023/08/26 04:06:37;;;;;;;0.00;0.00;;;;;;;11.73;100.00;99608.09;4995022;28;20559;-76
2023/08/26 04:09:06;;;;;;;0.00;0.00;;;;;;;11.57;100.00;99591.84;4999522;28;20029;-76
2023/08/26 04:11:31;;;;;;;0.00;0.00;;;;;;;11.48;100.00;99579.91;4967096;28;20044;-76
2023/08/26 04:13:57;;;;;;;0.00;0.00;;;;;;;11.55;100.00;99582.28;4982912;28;20034;-78
2023/08/26 04:16:22;;;;;;;0.00;0.00;;;;;;;11.67;100.00;99588.97;4994029;28;20024;-78
2023/08/26 04:18:48;;;;;;;0.00;0.00;;;;;;;11.60;100.00;99572.06;4999913;28;20056;-77
2023/08/26 04:21:13;;;;;;;0.00;0.00;;;;;;;11.65;100.00;99577.50;5004164;28;20013;-76
2023/08/26 04:23:39;;;;;;;0.00;0.00;;;;;;;11.61;100.00;99570.13;5012931;28;20026;-76
2023/08/26 04:26:09;;;;;;;0.00;0.00;;;;;;;11.53;100.00;99556.03;5016408;28;20873;-76
2023/08/26 04:28:38;;;;;;;0.00;0.00;;;;;;;11.53;100.00;99557.94;5000073;28;20080;-74
2023/08/26 04:31:06;;;;;;;0.00;0.00;;;;;;;11.61;100.00;99573.72;5002250;28;20030;-75
2023/08/26 04:33:31;;;;;;;0.00;0.00;;;;;;;11.63;100.00;99576.97;4973801;28;20492;-75
2023/08/26 04:35:59;;;;;;;0.00;0.00;;;;;;;11.51;100.00;99568.38;4996865;28;20033;-76
2023/08/26 04:38:24;;;;;;;0.00;0.00;;;;;;;11.47;100.00;99572.78;4960763;28;20746;-75
2023/08/26 04:40:49;;;;;;;0.00;0.00;;;;;;;11.41;100.00;99573.97;4992783;28;20053;-76
2023/08/26 04:43:15;;;;;;;0.00;0.00;;;;;;;11.23;100.00;99576.38;4988370;28;20400;-76
2023/08/26 04:45:40;;;;;;;0.00;0.00;;;;;;;11.00;100.00;99570.56;5005521;28;20029;-77
2023/08/26 04:48:09;;;;;;;0.00;0.00;;;;;;;10.81;100.00;99572.44;5000579;28;20025;-76
2023/08/26 04:50:34;;;;;;;0.00;0.00;;;;;;;10.68;100.00;99570.38;5014720;28;20021;-76
2023/08/26 04:53:00;;;;;;;0.00;0.00;;;;;;;10.57;100.00;99573.19;5012958;28;20109;-76
2023/08/26 04:55:28;;;;;;;0.00;0.00;;;;;;;10.53;100.00;99563.94;5009889;28;20095;-76
2023/08/26 04:58:04;;;;;;;;;;;;;;;;;;;;;
2023/08/26 05:00:29;;;;;;;0.00;0.00;;;;;;;10.58;100.00;99602.13;5009938;28;20029;-75
2023/08/26 05:02:55;;;;;;;0.00;0.00;;;;;;;10.51;100.00;99590.72;5006204;28;20037;-75
2023/08/26 05:05:28;;;;;;;0.00;0.00;;;;;;;10.42;100.00;99582.31;4984987;28;20037;-74
2023/08/26 05:07:55;;;;;;;0.00;0.00;;;;;;;10.43;100.00;99586.69;5015242;28;20118;-74
2023/08/26 05:10:23;;;;;;;0.00;0.00;;;;;;;10.30;100.00;99568.97;5000866;28;20040;-75
2023/08/26 05:12:48;;;;;;;0.00;0.00;;;;;;;10.34;100.00;99595.78;5010743;28;20523;-75
2023/08/26 05:15:14;;;;;;;0.00;0.00;;;;;;;10.36;100.00;99593.59;5020196;28;20034;-76
2023/08/26 05:17:39;;;;;;;0.00;0.00;;;;;;;10.19;100.00;99583.84;4993240;28;20188;-75
2023/08/26 05:20:13;;;;;;;0.00;0.00;;;;;;;10.14;100.00;99571.00;5015978;28;21091;-76
2023/08/26 05:22:40;;;;;;;0.00;0.00;;;;;;;10.11;100.00;99581.69;4998138;28;20117;-76
2023/08/26 05:25:14;;;;;;;0.00;0.00;;;;;;;10.18;100.00;99604.06;5001010;28;20030;-75
2023/08/26 05:27:40;;;;;;;0.00;0.00;;;;;;;10.05;100.00;99591.03;5004585;28;20029;-76
2023/08/26 05:30:08;;;;;;;0.00;0.00;;;;;;;10.08;100.00;99598.66;4982934;28;20814;-75
2023/08/26 05:32:35;;;;;;;0.00;0.00;;;;;;;10.05;100.00;99608.22;4998454;28;20029;-77
2023/08/26 05:35:00;;;;;;;0.00;0.00;;;;;;;10.05;100.00;99607.44;5004109;28;20025;-76
2023/08/26 05:37:45;;;;;;;;;;;;;;;;;;;;;
2023/08/26 05:40:12;;;;;;;0.00;0.00;;;;;;;10.33;100.00;99610.53;5014313;28;20022;-74
2023/08/26 05:42:55;;;;;;;0.00;0.00;;;;;;;10.39;100.00;99582.88;5004809;28;20021;-75
2023/08/26 05:45:47;;;;;;;0.00;0.00;;;;;;;10.71;100.00;99588.94;5004117;28;20106;-75
2023/08/26 05:48:23;;;;;;;;;;;;;;;;;;;;;
2023/08/26 05:50:59;;;;;;;0.00;0.00;;;;;;;11.15;100.00;99587.94;5018951;28;20056;-78
2023/08/26 05:53:48;;;;;;;;;;;;;;;;;;;;;
2023/08/26 05:56:16;;;;;;;0.00;0.00;;;;;;;11.61;100.00;99583.84;5017854;28;20025;-77
2023/08/26 05:58:44;;;;;;;0.00;0.00;;;;;;;11.72;100.00;99579.06;4974831;28;20426;-75
2023/08/26 06:01:15;;;;;;;0.00;0.00;;;;;;;12.02;100.00;99595.09;5002906;28;20056;-75
2023/08/26 06:03:43;;;;;;;0.00;0.00;;;;;;;12.14;100.00;99571.91;4999355;28;20022;-77
2023/08/26 06:06:30;;;;;;;0.00;0.00;;;;;;;12.30;100.00;99584.28;5021376;28;20026;-76
2023/08/26 06:08:58;;;;;;;0.00;0.00;;;;;;;12.53;100.00;99598.19;4997825;28;20034;-77
2023/08/26 06:11:31;;;;;;;0.00;0.00;;;;;;;12.56;100.00;99592.09;4984122;28;20033;-75
2023/08/26 06:14:22;;;;;;;;;;;;;;;;;;;;;
2023/08/26 06:16:57;;;;;;;0.00;0.00;;;;;;;12.54;100.00;99588.81;4998507;28;20026;-76
2023/08/26 06:23:07;;;;;;;;;;;;;;;;;;;;;
2023/08/26 06:29:12;;;;;;;;;;;;;;;;;;;;;
2023/08/26 06:39:27;;;;;;;;;;;;;;;;;;;;;
2023/08/26 06:41:47;;;;;;;0.00;0.00;;;;;;;13.08;100.00;99559.91;4942470;28;20043;-75
2023/08/26 06:44:33;;;;;;;0.00;0.00;;;;;;;13.26;100.00;99576.56;4937904;28;20079;-76
2023/08/26 06:47:40;;;;;;;;;;;;;;;;;;;;;
2023/08/26 06:50:27;;;;;;;;;;;;;;;;;;;;;
2023/08/26 06:53:01;;;;;;;0.00;0.00;;;;;;;13.59;100.00;99585.56;4920368;28;20047;-77
2023/08/26 06:55:44;;;;;;;0.00;0.00;;;;;;;13.91;100.00;99574.69;4948961;28;20050;-76
2023/08/26 06:58:19;;;;;;;0.00;0.00;;;;;;;14.27;100.00;99571.13;5004545;28;20026;-77
2023/08/26 07:00:47;;;;;;;0.00;0.00;;;;;;;14.61;100.00;99581.59;4999335;28;20040;-75
2023/08/26 07:06:52;;;;;;;;;;;;;;;;;;;;;
2023/08/26 07:09:18;;;;;;;0.00;0.00;;;;;;;14.87;100.00;99594.72;4980526;28;20079;-75
2023/08/26 07:11:43;;;;;;;0.00;0.00;;;;;;;14.77;100.00;99601.28;4988406;28;20375;-75
2023/08/26 07:14:35;;;;;;;0.00;0.00;;;;;;;14.47;100.00;99587.13;5009205;28;20029;-74
2023/08/26 07:17:01;;;;;;;0.00;0.00;;;;;;;14.36;100.00;99573.94;5010798;28;20050;-76
2023/08/26 07:19:42;;;;;;;;;;;;;;;;;;;;;
2023/08/26 07:22:34;;;;;;;;;;;;;;;;;;;;;
2023/08/26 07:25:02;;;;;;;0.00;0.00;;;;;;;15.22;100.00;99583.06;5005754;28;20029;-74
2023/08/26 07:27:32;;;;;;;0.00;0.00;;;;;;;15.61;100.00;99584.16;5005090;28;20032;-76
2023/08/26 07:30:31;;;;;;;0.00;0.00;;;;;;;15.93;100.00;99595.91;4989136;28;20037;-75
2023/08/26 07:32:58;;;;;;;0.00;0.00;;;;;;;16.17;100.00;99606.50;5012848;28;20498;-76
2023/08/26 07:35:36;;;;;;;0.00;0.00;;;;;;;16.58;100.00;99617.03;4998383;28;20037;-75
2023/08/26 07:38:51;;;;;;;0.00;0.00;;;;;;;16.50;100.00;99584.75;4998224;28;20021;-78
2023/08/26 07:41:35;;;;;;;0.00;0.00;;;;;;;16.51;100.00;99569.78;5009447;28;20033;-77
2023/08/26 07:44:28;;;;;;;;;;;;;;;;;;;;;
2023/08/26 07:46:53;;;;;;;0.00;0.00;;;;;;;16.52;100.00;99595.47;5017865;28;20378;-77
2023/08/26 07:49:19;;;;;;;0.00;0.00;;;;;;;16.61;100.00;99607.28;4999214;28;20124;-76
2023/08/26 07:51:44;;;;;;;0.00;0.00;;;;;;;17.03;100.00;99617.81;4988120;28;20025;-77
2023/08/26 07:54:10;;;;;;;0.00;0.00;;;;;;;17.52;98.31;99634.88;4996318;28;20072;-77
2023/08/26 07:56:35;;;;;;;0.00;0.00;;;;;;;17.80;96.66;99623.34;4975078;28;20038;-77
2023/08/26 07:59:00;;;;;;;0.00;0.00;;;;;;;17.92;94.08;99628.19;5003289;28;20030;-74
2023/08/26 08:01:28;;;;;;;0.00;0.00;;;;;;;17.86;91.83;99622.00;5001158;28;20511;-75
2023/08/26 08:03:53;;;;;;;0.00;0.00;;;;;;;17.93;91.26;99614.03;4955167;28;20034;-76
2023/08/26 08:06:19;;;;;;;0.00;0.00;;;;;;;18.12;90.01;99609.97;4974096;28;20436;-76
2023/08/26 08:08:54;;;;;;;0.00;0.00;;;;;;;18.23;88.54;99616.72;4979953;28;20033;-76
2023/08/26 08:11:22;;;;;;;0.00;0.00;;;;;;;18.53;87.77;99607.53;4991707;28;20066;-76
2023/08/26 08:13:47;;;;;;;0.00;0.00;;;;;;;18.88;87.29;99637.69;4983450;28;20879;-76
2023/08/26 08:16:13;;;;;;;0.00;0.00;;;;;;;18.87;80.13;99639.66;4978222;28;20160;-75
2023/08/26 08:18:38;;;;;;;0.00;0.00;;;;;;;18.90;76.70;99638.97;4978065;28;20121;-75
2023/08/26 08:21:04;;;;;;;0.00;0.00;;;;;;;18.89;73.83;99642.09;4968883;28;20353;-75
2023/08/26 08:23:30;;;;;;;0.00;0.00;;;;;;;19.04;74.66;99647.00;4977525;28;20042;-77
2023/08/26 08:25:55;;;;;;;0.00;0.00;;;;;;;19.26;73.43;99651.31;4983025;28;20021;-77
2023/08/26 08:28:20;;;;;;;0.00;0.00;;;;;;;19.20;70.52;99649.91;4958869;28;20839;-76
2023/08/26 08:30:46;;;;;;;0.00;0.00;;;;;;;19.33;68.51;99657.09;4942593;28;20042;-76
2023/08/26 08:33:11;;;;;;;0.00;0.00;;;;;;;19.50;66.24;99649.72;4967863;28;20034;-76
2023/08/26 08:35:37;;;;;;;0.00;0.00;;;;;;;20.23;65.70;99653.66;4970723;28;20042;-75
2023/08/26 08:38:03;;;;;;;0.00;0.00;;;;;;;21.18;62.96;99646.84;4968713;28;20508;-75
2023/08/26 08:40:28;;;;;;;0.00;0.00;;;;;;;21.48;59.61;99651.94;4995493;28;20108;-74
2023/08/26 08:42:57;;;;;;;0.00;0.00;;;;;;;21.37;59.06;99663.63;4985902;28;20392;-75
2023/08/26 08:45:25;;;;;;;0.00;0.00;;;;;;;21.75;57.89;99659.41;4991364;28;20022;-74
2023/08/26 08:47:55;;;;;;;0.00;0.00;;;;;;;22.28;57.25;99658.25;4975239;28;20053;-73
2023/08/26 08:50:21;;;;;;;0.00;0.00;;;;;;;23.16;54.74;99657.72;4969258;28;20399;-74
2023/08/26 08:52:51;;;;;;;0.00;0.00;;;;;;;24.31;50.76;99661.59;4963616;28;20384;-74
2023/08/26 08:55:17;;;;;;;0.00;0.00;;;;;;;24.81;49.77;99664.25;5011539;28;20057;-73
2023/08/26 08:57:44;;;;;;;0.00;0.00;;;;;;;26.75;45.12;99664.22;4982625;28;20038;-74
2023/08/26 09:00:11;;;;;;;0.00;0.00;;;;;;;28.59;41.45;99659.47;4989546;28;20029;-73
2023/08/26 09:02:42;;;;;;;0.00;0.00;;;;;;;30.78;37.68;99668.19;5004494;28;20042;-77
2023/08/26 09:05:08;;;;;;;0.00;0.00;;;;;;;30.40;36.49;99665.41;5003049;28;20034;-76
2023/08/26 09:07:36;;;;;;;0.00;0.00;;;;;;;28.56;39.96;99668.69;5002374;28;20098;-75
2023/08/26 09:10:05;;;;;;;0.00;0.00;;;;;;;28.50;39.27;99668.31;5011487;28;20101;-76
2023/08/26 09:12:31;;;;;;;0.00;0.00;;;;;;;27.88;39.87;99658.38;5014453;28;20041;-74
2023/08/26 09:14:56;;;;;;;0.00;0.00;;;;;;;26.96;41.52;99660.69;5017819;28;20028;-74
2023/08/26 09:17:21;;;;;;;0.00;0.00;;;;;;;26.91;41.92;99661.88;5006573;28;20475;-74
2023/08/26 09:19:55;;;;;;;0.00;0.00;;;;;;;27.78;40.20;99659.19;4983836;28;20517;-74
2023/08/26 09:22:25;;;;;;;0.00;0.00;;;;;;;28.92;38.17;99665.75;5012395;28;20029;-75
2023/08/26 09:24:58;;;;;;;0.00;0.00;;;;;;;29.63;37.21;99666.53;4992691;28;20029;-73
2023/08/26 09:27:24;;;;;;;0.00;0.00;;;;;;;29.74;36.56;99653.13;4987174;28;20033;-75
2023/08/26 09:29:51;;;;;;;0.00;0.00;;;;;;;29.92;36.59;99666.28;5027028;28;20030;-75
2023/08/26 09:32:31;;;;;;;0.00;0.00;;;;;;;29.61;37.08;99666.13;5000234;28;20387;-75
2023/08/26 09:35:10;;;;;;;0.00;0.00;;;;;;;28.64;38.04;99664.69;5011976;28;20038;-72
2023/08/26 09:37:36;;;;;;;0.00;0.00;;;;;;;28.21;38.32;99661.97;5007668;28;20108;-74
2023/08/26 09:40:03;;;;;;;0.00;0.00;;;;;;;27.60;39.03;99662.81;4990040;28;20167;-74
2023/08/26 09:42:30;;;;;;;0.00;0.00;;;;;;;27.64;37.76;99663.63;5006091;28;20489;-73
2023/08/26 09:44:56;;;;;;;0.00;0.00;;;;;;;28.04;37.50;99664.41;4980227;28;20060;-73
2023/08/26 09:47:22;;;;;;;0.00;0.00;;;;;;;29.18;36.33;99672.84;5026248;28;20074;-75
2023/08/26 09:49:49;;;;;;;0.00;0.00;;;;;;;28.44;37.35;99669.13;4992543;28;20038;-74
2023/08/26 09:52:15;;;;;;;0.00;0.00;;;;;;;27.45;37.85;99672.41;4970357;28;20345;-74
2023/08/26 09:54:43;;;;;;;0.00;0.00;;;;;;;27.25;39.10;99660.72;5017262;28;20064;-75
2023/08/26 09:57:08;;;;;;;0.00;0.00;;;;;;;28.62;35.75;99675.53;5023260;28;20052;-73
2023/08/26 09:59:34;;;;;;;0.00;0.00;;;;;;;28.53;34.70;99666.69;5007150;28;20075;-73
2023/08/26 10:02:03;;;;;;;0.00;0.00;;;;;;;28.06;35.06;99664.00;4995420;28;20105;-74
2023/08/26 10:04:33;;;;;;;0.00;0.00;;;;;;;28.19;35.50;99661.56;5020711;28;20037;-72
2023/08/26 10:07:00;;;;;;;0.00;0.00;;;;;;;29.32;34.20;99666.34;5016923;28;20075;-74
2023/08/26 10:09:55;;;;;;;0.00;0.00;;;;;;;29.41;34.43;99677.16;5011127;28;20022;-74
2023/08/26 10:12:23;;;;;;;;;;;;;;;30.07;31.91;99681.84;5017662;28;20034;-73
2023/08/26 10:14:50;;;;;;;0.00;0.00;;;;;;;30.64;31.00;99691.72;5022344;28;19921;-74
2023/08/26 10:17:20;;;;;;;0.00;0.00;;;;;;;29.01;32.35;99691.41;5019246;28;20052;-74
2023/08/26 10:19:46;;;;;;;0.00;0.00;;;;;;;28.11;34.40;99671.22;5007234;28;20390;-75
2023/08/26 10:22:12;;;;;;;0.00;0.00;;;;;;;27.50;35.23;99672.03;5017195;28;20056;-75
2023/08/26 10:24:39;;;;;;;0.00;0.00;;;;;;;25.95;37.63;99679.75;5003496;28;20433;-75
2023/08/26 10:27:06;;;;;;;0.00;0.00;;;;;;;24.90;39.50;99675.91;4993470;28;20121;-73
2023/08/26 10:29:35;;;;;;;0.00;0.00;;;;;;;25.09;40.47;99679.72;5020391;28;20033;-73
2023/08/26 10:32:22;;;;;;;0.00;0.00;;;;;;;25.72;39.92;99675.16;4997233;28;20125;-75
2023/08/26 10:34:56;;;;;;;0.00;0.00;;;;;;;26.03;39.63;99669.41;5015933;28;20030;-73
2023/08/26 10:37:33;;;;;;;0.00;0.00;;;;;;;26.13;39.18;99685.47;4997082;28;20026;-74
2023/08/26 10:40:09;;;;;;;0.00;0.00;;;;;;;26.16;38.69;99684.69;5002969;28;20029;-77
2023/08/26 10:42:36;;;;;;;0.00;0.00;;;;;;;25.75;37.66;99687.56;5001178;28;20248;-73
2023/08/26 10:45:10;;;;;;;0.00;0.00;;;;;;;26.25;38.48;99690.75;5014032;28;20424;-73
2023/08/26 10:47:45;;;;;;;0.00;0.00;;;;;;;26.25;38.80;99687.94;4997915;28;20099;-72
2023/08/26 10:50:25;;;;;;;0.00;0.00;;;;;;;26.28;39.12;99680.78;5015362;28;20024;-72
2023/08/26 10:53:21;;;;;;;0.00;0.00;;;;;;;25.66;39.63;99676.69;5006652;28;20723;-73
2023/08/26 10:55:52;;;;;;;0.00;0.00;;;;;;;27.32;37.74;99672.78;5000920;28;20053;-73
2023/08/26 10:58:42;;;;;;;0.00;0.00;;;;;;;30.50;31.87;99691.09;5015413;28;20037;-74
2023/08/26 11:01:09;;;;;;;0.00;0.00;;;;;;;30.39;30.28;99683.53;5015293;28;20025;-73
2023/08/26 11:03:37;;;;;;;0.00;0.00;;;;;;;28.94;32.14;99674.56;5002864;28;20029;-75
2023/08/26 11:06:04;;;;;;;0.00;0.00;;;;;;;27.46;34.83;99679.66;5007389;28;20033;-73
2023/08/26 11:08:30;;;;;;;0.00;0.00;;;;;;;26.58;35.90;99672.13;4992324;28;20026;-73
2023/08/26 11:10:56;;;;;;;0.00;0.00;;;;;;;26.02;37.21;99681.81;5025862;28;20038;-77
2023/08/26 11:13:41;;;;;;;0.00;0.00;;;;;;;27.44;35.47;99665.22;5025475;28;20412;-79
2023/08/26 11:16:06;;;;;;;0.00;0.00;;;;;;;30.71;31.36;99679.56;5003199;28;20053;-74
2023/08/26 11:18:33;;;;;;;0.00;0.00;;;;;;;33.07;29.30;99672.31;4976540;28;20022;-76
2023/08/26 11:21:04;;;;;;;0.00;0.00;;;;;;;34.10;27.09;99667.44;5010501;28;20443;-76
2023/08/26 11:23:32;;;;;;;0.00;0.00;;;;;;;34.19;25.27;99659.06;5009655;28;20030;-77
2023/08/26 11:25:58;;;;;;;0.00;0.00;;;;;;;35.68;24.71;99672.53;5014845;28;20433;-77
2023/08/26 11:28:26;;;;;;;0.00;0.00;;;;;;;35.71;24.59;99648.84;5015630;28;20060;-76
2023/08/26 11:31:10;;;;;;;0.00;0.00;;;;;;;34.61;25.44;99644.16;5011640;28;20021;-78
2023/08/26 11:33:48;;;;;;;0.00;0.00;;;;;;;32.58;27.25;99638.19;5006095;28;20032;-77
2023/08/26 11:36:13;;;;;;;0.00;0.00;;;;;;;30.58;29.61;99653.13;5013533;28;20515;-76
2023/08/26 11:38:39;;;;;;;0.00;0.00;;;;;;;29.71;31.62;99665.22;5012659;28;20124;-77
2023/08/26 11:41:05;;;;;;;0.00;0.00;;;;;;;29.07;31.39;99656.03;5009363;28;20464;-76
2023/08/26 11:43:31;;;;;;;0.00;0.00;;;;;;;28.73;33.00;99650.16;5007902;28;20030;-77
2023/08/26 11:45:56;;;;;;;0.00;0.00;;;;;;;29.38;31.09;99667.50;4983432;28;20037;-76
2023/08/26 11:48:22;;;;;;;0.00;0.00;;;;;;;29.76;31.42;99661.19;5028055;28;20025;-77
2023/08/26 11:50:50;;;;;;;0.00;0.00;;;;;;;30.75;29.67;99635.19;5023394;28;20474;-77
2023/08/26 11:53:15;;;;;;;0.00;0.00;;;;;;;31.77;29.26;99657.84;4996009;28;20100;-77
2023/08/26 11:55:41;;;;;;;0.00;0.00;;;;;;;32.92;28.15;99654.88;4995016;28;20412;-77
2023/08/26 11:58:07;;;;;;;0.00;0.00;;;;;;;33.52;26.79;99651.88;5001821;28;20038;-77
2023/08/26 12:00:33;;;;;;;0.00;0.00;;;;;;;33.76;26.26;99657.38;5005120;28;20052;-76
2023/08/26 12:03:04;;;;;;;0.00;0.00;;;;;;;34.01;24.08;99664.41;5010764;28;20025;-77
2023/08/26 12:05:48;;;;;;;0.00;0.00;;;;;;;33.31;25.12;99663.72;5015037;28;20034;-77
2023/08/26 12:08:15;;;;;;;0.00;0.00;;;;;;;33.56;24.42;99663.91;5020208;28;20171;-78
2023/08/26 12:10:42;;;;;;;0.00;0.00;;;;;;;34.55;22.98;99675.13;5039363;28;20025;-76
2023/08/26 12:13:10;;;;;;;0.00;0.00;;;;;;;34.69;22.94;99659.69;5000910;28;20507;-78
2023/08/26 12:15:39;;;;;;;0.00;0.00;;;;;;;35.55;22.16;99681.84;5004593;28;21216;-77